Time;durP1;ratioP1;P1;durP2;ratioP2;P2;SDS_P1;SDS_P2;PMS_P1;PMS_P2;Temp;Humidity;BMP_temperature;BMP_pressure;BME280_temperature;BME280_humidity;BME280_pressure;Samples;Min_cycle;Max_cycle;Signal;HPM_P1;HPM_P2
2023/04/17 00:00:57;;;;;;;1999.90;999.90;;;10.20;1.00;;;;;;4862610;29;20562;-73
2023/04/17 00:03:23;;;;;;;1999.90;999.90;;;9.50;1.00;;;;;;4861996;29;20083;-73
2023/04/17 00:05:49;;;;;;;1727.28;764.33;;;9.40;1.00;;;;;;4876063;29;20129;-76
2023/04/17 00:08:15;;;;;;;1999.90;999.90;;;9.40;1.00;;;;;;4862428;29;20084;-73
2023/04/17 00:10:40;;;;;;;1999.90;999.90;;;9.40;1.00;;;;;;4870318;29;20049;-75
2023/04/17 00:13:06;;;;;;;1999.90;999.90;;;9.40;1.00;;;;;;4857687;29;20463;-73
2023/04/17 00:15:32;;;;;;;1999.90;999.90;;;9.40;1.00;;;;;;4852556;29;20137;-73
2023/04/17 00:17:58;;;;;;;1999.90;999.90;;;;;;;;;;4875974;29;20132;-74
2023/04/17 00:20:23;;;;;;;1999.90;999.90;;;9.40;1.00;;;;;;4875045;29;20052;-73
2023/04/17 00:22:49;;;;;;;1999.90;999.90;;;9.40;1.00;;;;;;4886705;29;20446;-73
2023/04/17 00:25:15;;;;;;;1999.90;999.90;;;9.40;1.00;;;;;;4862802;29;20057;-76
2023/04/17 00:27:41;;;;;;;1809.63;550.38;;;9.40;1.00;;;;;;4860452;29;20135;-73
2023/04/17 00:30:08;;;;;;;1999.90;999.90;;;9.40;1.00;;;;;;4876103;29;20048;-73
2023/04/17 00:32:33;;;;;;;1999.90;999.90;;;8.80;1.00;;;;;;4874137;29;20065;-74
2023/04/17 00:34:59;;;;;;;1999.90;999.90;;;9.40;1.00;;;;;;4861469;29;20092;-73
2023/04/17 00:37:25;;;;;;;1860.22;771.83;;;9.50;1.00;;;;;;4874720;29;20228;-72
2023/04/17 00:39:51;;;;;;;1999.90;999.90;;;9.40;1.00;;;;;;4873807;29;20413;-74
2023/04/17 00:42:16;;;;;;;1999.90;999.90;;;9.40;1.00;;;;;;4852921;29;20129;-76
2023/04/17 00:44:42;;;;;;;1768.70;547.72;;;9.40;1.00;;;;;;4844341;29;20045;-72
2023/04/17 00:47:08;;;;;;;1999.90;999.90;;;9.40;1.00;;;;;;4857581;29;20070;-73
2023/04/17 00:49:34;;;;;;;1999.90;999.90;;;9.40;1.00;;;;;;4857009;29;20562;-74
2023/04/17 00:52:00;;;;;;;1999.90;999.90;;;7.80;1.00;;;;;;4836521;29;20057;-73
2023/04/17 00:54:27;;;;;;;1999.90;999.90;;;9.40;1.00;;;;;;4870395;29;20045;-73
2023/04/17 00:56:55;;;;;;;1999.90;999.90;;;9.40;1.00;;;;;;4876274;29;20063;-73
2023/04/17 00:59:22;;;;;;;1999.90;999.90;;;9.40;1.00;;;;;;4861903;29;20111;-73
2023/04/17 01:01:48;;;;;;;1999.90;999.90;;;9.40;1.00;;;;;;4842984;29;20065;-73
2023/04/17 01:04:13;;;;;;;1508.57;530.17;;;9.40;1.00;;;;;;4875742;29;20060;-73
2023/04/17 01:06:40;;;;;;;1999.90;999.90;;;9.40;1.00;;;;;;4857075;29;20053;-73
2023/04/17 01:09:07;;;;;;;1725.82;541.70;;;9.50;1.00;;;;;;4870088;29;20049;-73
2023/04/17 01:11:33;;;;;;;1999.90;999.90;;;9.50;1.00;;;;;;4852287;29;20052;-73
2023/04/17 01:13:59;;;;;;;1999.90;999.90;;;;;;;;;;4872808;29;20045;-73
2023/04/17 01:16:25;;;;;;;1999.90;999.90;;;9.50;1.00;;;;;;4859207;29;20055;-73
2023/04/17 01:18:51;;;;;;;1999.90;999.90;;;9.50;1.00;;;;;;4872014;29;20044;-73
2023/04/17 01:21:16;;;;;;;1999.90;999.90;;;9.50;1.00;;;;;;4870520;29;20057;-73
2023/04/17 01:23:53;;;;;;;1999.90;999.90;;;9.50;1.00;;;;;;4857580;29;20060;-73
2023/04/17 01:26:22;;;;;;;1999.90;999.90;;;9.50;1.00;;;;;;4866774;29;20053;-73
2023/04/17 01:28:55;;;;;;;1999.90;999.90;;;9.50;1.00;;;;;;4872048;29;20052;-73
2023/04/17 01:31:22;;;;;;;1999.90;999.90;;;9.50;1.00;;;;;;4855760;29;20103;-77
2023/04/17 01:33:48;;;;;;;1999.90;999.90;;;9.50;1.00;;;;;;4871307;29;20051;-74
2023/04/17 01:36:14;;;;;;;1999.90;999.90;;;9.50;1.00;;;;;;4872209;29;20094;-73
2023/04/17 01:38:40;;;;;;;1915.72;329.02;;;9.50;1.00;;;;;;4840877;29;20104;-73
2023/04/17 01:41:10;;;;;;;1999.90;999.90;;;9.40;1.00;;;;;;4874229;29;20049;-73
2023/04/17 01:43:37;;;;;;;1999.90;999.90;;;9.40;1.00;;;;;;4853084;29;20045;-73
2023/04/17 01:46:03;;;;;;;1999.90;999.90;;;9.40;1.00;;;;;;4876947;29;20053;-73
2023/04/17 01:48:28;;;;;;;1999.90;999.90;;;9.70;1.00;;;;;;4857622;29;20521;-73
2023/04/17 01:50:54;;;;;;;1999.90;999.90;;;9.50;1.00;;;;;;4871675;29;20045;-73
2023/04/17 01:53:20;;;;;;;1745.32;765.88;;;9.50;1.00;;;;;;4874679;29;20511;-73
2023/04/17 01:55:46;;;;;;;1999.90;999.90;;;9.50;1.00;;;;;;4872983;29;20376;-73
2023/04/17 01:58:11;;;;;;;1999.90;999.90;;;9.50;1.00;;;;;;4874687;29;20055;-74
2023/04/17 02:00:37;;;;;;;1999.90;999.90;;;9.50;1.00;;;;;;4856124;29;20128;-73
2023/04/17 02:03:03;;;;;;;1834.90;770.63;;;9.40;1.00;;;;;;4859819;29;20053;-73
2023/04/17 02:05:28;;;;;;;1999.90;999.90;;;9.40;1.00;;;;;;4857027;29;20064;-73
2023/04/17 02:07:54;;;;;;;1999.90;999.90;;;10.00;1.00;;;;;;4874709;29;20455;-77
2023/04/17 02:10:20;;;;;;;1712.38;762.45;;;9.70;1.00;;;;;;4872622;29;20049;-73
2023/04/17 02:12:45;;;;;;;1999.90;999.90;;;9.60;1.00;;;;;;4873392;29;20049;-73
2023/04/17 02:15:11;;;;;;;1999.90;999.90;;;9.40;1.00;;;;;;4872806;29;20049;-74
2023/04/17 02:17:37;;;;;;;1999.90;999.90;;;;;;;;;;4872222;29;20112;-72
2023/04/17 02:20:06;;;;;;;1999.90;999.90;;;9.40;1.00;;;;;;4875429;29;20447;-73
2023/04/17 02:22:32;;;;;;;1999.90;999.90;;;9.40;1.00;;;;;;4859277;29;20053;-73
2023/04/17 02:24:58;;;;;;;1999.90;999.90;;;;;;;;;;4859317;29;20123;-73
2023/04/17 02:27:23;;;;;;;1680.50;324.58;;;9.40;1.00;;;;;;4872850;29;20398;-74
2023/04/17 02:29:49;;;;;;;1999.90;999.90;;;9.40;1.00;;;;;;4871597;29;20045;-73
2023/04/17 02:32:16;;;;;;;1899.63;547.83;;;9.40;1.00;;;;;;4842255;29;20075;-73
2023/04/17 02:34:41;;;;;;;1999.90;999.90;;;9.40;1.00;;;;;;4857915;29;20097;-72
2023/04/17 02:37:07;;;;;;;1999.90;999.90;;;9.40;1.00;;;;;;4860733;29;20080;-73
2023/04/17 02:39:34;;;;;;;1999.90;999.90;;;9.40;1.50;;;;;;4858337;29;20049;-72
2023/04/17 02:42:01;;;;;;;1999.90;999.90;;;9.30;18.80;;;;;;4875337;29;20063;-73
2023/04/17 02:44:27;;;;;;;1445.30;523.42;;;9.40;30.50;;;;;;4873108;29;20053;-73
2023/04/17 02:46:52;;;;;;;1999.90;999.90;;;7.70;25.30;;;;;;4864470;29;20056;-72
2023/04/17 02:49:18;;;;;;;1999.90;999.90;;;11.10;58.20;;;;;;4865570;29;20053;-75
2023/04/17 02:51:44;;;;;;;1999.90;999.90;;;;;;;;;;4868276;29;20120;-75
2023/04/17 02:54:10;;;;;;;1999.90;999.90;;;9.40;50.70;;;;;;4871851;29;20049;-74
2023/04/17 02:56:37;;;;;;;1999.90;999.90;;;9.40;91.50;;;;;;4846925;29;20553;-74
2023/04/17 02:59:03;;;;;;;1999.90;999.90;;;8.90;65.10;;;;;;4827196;29;21024;-73
2023/04/17 03:01:28;;;;;;;1608.80;536.40;;;9.00;82.30;;;;;;4863433;29;20056;-74
2023/04/17 03:03:55;;;;;;;1999.90;999.90;;;9.40;90.20;;;;;;4836207;29;22257;-74
2023/04/17 03:06:21;;;;;;;1999.90;999.90;;;9.40;93.10;;;;;;4855733;29;20056;-75
2023/04/17 03:08:46;;;;;;;1999.90;999.90;;;9.70;96.00;;;;;;4875330;29;20041;-73
2023/04/17 03:11:12;;;;;;;1999.90;999.90;;;9.40;99.90;;;;;;4834594;29;20046;-73
2023/04/17 03:13:38;;;;;;;1999.90;999.90;;;9.50;99.90;;;;;;4869015;29;20061;-73
2023/04/17 03:16:04;;;;;;;1630.97;533.25;;;9.40;99.90;;;;;;4869842;29;20044;-73
2023/04/17 03:18:30;;;;;;;1999.90;999.90;;;9.40;99.90;;;;;;4857103;29;20065;-74
2023/04/17 03:20:57;;;;;;;1999.90;999.90;;;9.40;99.90;;;;;;4869625;29;20065;-73
2023/04/17 03:23:23;;;;;;;1999.90;999.90;;;9.40;99.90;;;;;;4879127;29;20053;-74
2023/04/17 03:25:49;;;;;;;1999.90;999.90;;;9.40;99.90;;;;;;4852608;29;20056;-74
2023/04/17 03:28:15;;;;;;;1999.90;999.90;;;9.40;99.90;;;;;;4869719;29;20068;-73
2023/04/17 03:30:40;;;;;;;1999.90;999.90;;;9.40;99.90;;;;;;4853747;29;20494;-76
2023/04/17 03:33:06;;;;;;;1999.90;999.90;;;9.40;99.90;;;;;;4859307;29;20055;-72
2023/04/17 03:35:32;;;;;;;1999.90;999.90;;;9.40;99.90;;;;;;4867772;29;20049;-74
2023/04/17 03:37:58;;;;;;;1999.90;999.90;;;9.90;99.90;;;;;;4873414;29;20045;-74
2023/04/17 03:40:23;;;;;;;1999.90;999.90;;;9.30;99.90;;;;;;4868775;29;20045;-73
2023/04/17 03:42:49;;;;;;;1999.90;999.90;;;9.30;99.90;;;;;;4878083;29;20411;-73
2023/04/17 03:45:15;;;;;;;1999.90;999.90;;;9.40;99.90;;;;;;4878574;29;20057;-73
2023/04/17 03:47:41;;;;;;;1999.90;999.90;;;9.40;99.90;;;;;;4873868;29;20056;-74
2023/04/17 03:50:07;;;;;;;1999.90;999.90;;;9.60;99.90;;;;;;4878563;29;20045;-74
2023/04/17 03:52:33;;;;;;;1999.90;999.90;;;9.40;99.90;;;;;;4875362;29;20053;-74
2023/04/17 03:54:59;;;;;;;1999.90;999.90;;;9.30;99.90;;;;;;4859670;29;20055;-74
2023/04/17 03:57:25;;;;;;;1999.90;999.90;;;9.30;99.90;;;;;;4869591;29;20084;-73
2023/04/17 03:59:51;;;;;;;1999.90;999.90;;;8.90;99.90;;;;;;4855780;29;20052;-76
2023/04/17 04:02:17;;;;;;;1999.90;999.90;;;9.20;99.90;;;;;;4869595;29;20049;-73
2023/04/17 04:04:43;;;;;;;1999.90;999.90;;;;;;;;;;4869461;29;20052;-77
2023/04/17 04:07:08;;;;;;;1864.88;544.53;;;9.30;99.90;;;;;;4868004;29;20084;-73
2023/04/17 04:09:34;;;;;;;1999.90;999.90;;;9.30;99.90;;;;;;4870440;29;20109;-74
2023/04/17 04:12:00;;;;;;;1607.22;531.95;;;9.30;99.90;;;;;;4859291;29;20076;-74
2023/04/17 04:14:25;;;;;;;1999.90;999.90;;;9.40;99.90;;;;;;4875261;29;20053;-74
2023/04/17 04:16:51;;;;;;;1999.90;999.90;;;9.20;99.90;;;;;;4871073;29;20124;-73
2023/04/17 04:19:17;;;;;;;1999.90;999.90;;;9.20;99.90;;;;;;4876100;29;20052;-73
2023/04/17 04:21:43;;;;;;;1999.90;999.90;;;8.90;99.90;;;;;;4871434;29;20511;-74
2023/04/17 04:24:12;;;;;;;1999.90;999.90;;;9.20;99.90;;;;;;4859980;29;20052;-74
2023/04/17 04:26:39;;;;;;;1999.90;999.90;;;9.20;99.90;;;;;;4874813;29;20046;-74
2023/04/17 04:29:05;;;;;;;1999.90;999.90;;;9.20;99.90;;;;;;4872307;29;20057;-75
2023/04/17 04:31:31;;;;;;;1999.90;999.90;;;9.20;99.90;;;;;;4860974;29;20049;-75
2023/04/17 04:33:58;;;;;;;1999.90;999.90;;;9.60;99.90;;;;;;4874422;29;20100;-74
2023/04/17 04:36:24;;;;;;;1999.90;999.90;;;9.20;99.90;;;;;;4872573;29;20044;-74
2023/04/17 04:38:50;;;;;;;1999.90;999.90;;;9.20;99.90;;;;;;4852575;29;20060;-77
2023/04/17 04:41:16;;;;;;;1999.90;999.90;;;9.20;99.90;;;;;;4855113;29;20120;-75
2023/04/17 04:43:45;;;;;;;1356.63;520.88;;;9.20;99.90;;;;;;4860412;29;20446;-74
2023/04/17 04:46:10;;;;;;;1788.15;765.85;;;9.20;99.90;;;;;;4859694;29;20045;-74
2023/04/17 04:48:36;;;;;;;1999.90;999.90;;;9.20;99.90;;;;;;4830671;29;20105;-74
2023/04/17 04:51:02;;;;;;;1999.90;999.90;;;9.30;99.90;;;;;;4857418;29;20049;-73
2023/04/17 04:53:28;;;;;;;1999.90;999.90;;;9.30;99.90;;;;;;4877554;29;20139;-73
2023/04/17 04:55:53;;;;;;;1999.90;999.90;;;9.30;99.90;;;;;;4856888;29;20037;-74
2023/04/17 04:58:19;;;;;;;1999.90;999.90;;;9.30;99.90;;;;;;4850422;29;20061;-74
2023/04/17 05:00:45;;;;;;;1839.53;768.13;;;9.30;99.90;;;;;;4869652;29;20048;-73
2023/04/17 05:03:11;;;;;;;1523.78;527.40;;;;;;;;;;4860728;29;20044;-73
2023/04/17 05:05:38;;;;;;;1999.90;999.90;;;9.30;99.90;;;;;;4873601;29;20094;-74
2023/04/17 05:08:04;;;;;;;1999.90;999.90;;;9.30;99.90;;;;;;4876120;29;20128;-73
2023/04/17 05:10:30;;;;;;;1999.90;999.90;;;9.30;99.90;;;;;;4840486;29;20309;-74
2023/04/17 05:12:56;;;;;;;1732.68;762.13;;;9.30;99.90;;;;;;4853000;29;20045;-74
2023/04/17 05:15:22;;;;;;;1999.90;999.90;;;9.40;99.90;;;;;;4847717;29;20045;-73
2023/04/17 05:17:48;;;;;;;1999.90;999.90;;;9.50;99.90;;;;;;4861245;29;20052;-76
2023/04/17 05:20:13;;;;;;;1999.90;999.90;;;9.40;99.90;;;;;;4854506;29;20045;-73
2023/04/17 05:22:40;;;;;;;1999.90;999.90;;;9.40;99.90;;;;;;4860764;29;20131;-73
2023/04/17 05:25:06;;;;;;;1999.90;999.90;;;9.40;99.90;;;;;;4872539;29;20049;-74
2023/04/17 05:27:32;;;;;;;1999.90;999.90;;;9.40;99.90;;;;;;4851487;29;20397;-73
2023/04/17 05:29:57;;;;;;;1999.90;999.90;;;8.20;99.90;;;;;;4860240;29;20060;-74
2023/04/17 05:32:23;;;;;;;1888.68;770.78;;;10.30;99.90;;;;;;4827147;29;20045;-76
2023/04/17 05:34:49;;;;;;;1999.90;999.90;;;9.60;99.90;;;;;;4843008;29;20065;-79
2023/04/17 05:37:15;;;;;;;1999.90;999.90;;;9.50;99.90;;;;;;4857626;29;20049;-76
2023/04/17 05:39:41;;;;;;;1999.90;999.90;;;9.60;99.90;;;;;;4845247;29;20081;-75
2023/04/17 05:42:07;;;;;;;1999.90;999.90;;;9.60;99.90;;;;;;4860877;29;20052;-76
2023/04/17 05:44:32;;;;;;;1999.90;999.90;;;9.60;99.90;;;;;;4846766;29;20060;-76
2023/04/17 05:47:02;;;;;;;1999.90;999.90;;;9.70;99.90;;;;;;4860166;29;20494;-75
2023/04/17 05:49:28;;;;;;;1999.90;999.90;;;9.70;99.90;;;;;;4846995;29;20117;-76
2023/04/17 05:51:53;;;;;;;1999.90;999.90;;;9.70;99.90;;;;;;4861136;29;20482;-75
2023/04/17 05:54:19;;;;;;;1685.53;760.88;;;;;;;;;;4860966;29;20463;-75
2023/04/17 05:56:46;;;;;;;1999.90;999.90;;;9.80;99.90;;;;;;4858836;29;20053;-76
2023/04/17 05:59:11;;;;;;;1999.90;999.90;;;9.80;99.90;;;;;;4861388;29;20056;-75
2023/04/17 06:01:38;;;;;;;1999.90;999.90;;;9.80;99.90;;;;;;4860907;29;20057;-76
2023/04/17 06:04:04;;;;;;;1752.13;763.35;;;9.90;99.90;;;;;;4846199;29;20140;-75
2023/04/17 06:06:30;;;;;;;1799.13;768.15;;;9.90;99.90;;;;;;4860769;29;20057;-75
2023/04/17 06:08:56;;;;;;;1999.90;999.90;;;10.20;99.90;;;;;;4861006;29;20127;-75
2023/04/17 06:11:23;;;;;;;1999.90;999.90;;;9.90;99.90;;;;;;4861495;29;20049;-75
2023/04/17 06:13:49;;;;;;;1999.90;999.90;;;10.00;99.90;;;;;;4861140;29;20056;-75
2023/04/17 06:16:14;;;;;;;1999.90;999.90;;;10.00;99.90;;;;;;4855535;29;20053;-75
2023/04/17 06:18:41;;;;;;;1999.90;999.90;;;10.10;99.90;;;;;;4828029;29;20053;-75
2023/04/17 06:21:07;;;;;;;1999.90;999.90;;;10.10;96.20;;;;;;4840325;29;20049;-77
2023/04/17 06:23:33;;;;;;;1999.90;999.90;;;10.20;99.90;;;;;;4870628;29;20049;-75
2023/04/17 06:25:59;;;;;;;1999.90;999.90;;;10.30;86.50;;;;;;4860134;29;20070;-75
2023/04/17 06:28:24;;;;;;;1999.90;999.90;;;10.30;80.50;;;;;;4830586;29;20054;-75
2023/04/17 06:30:50;;;;;;;1999.90;999.90;;;10.30;68.90;;;;;;4844792;29;20374;-75
2023/04/17 06:33:16;;;;;;;1999.90;999.90;;;10.30;60.10;;;;;;4875892;29;20041;-75
2023/04/17 06:35:41;;;;;;;1999.90;999.90;;;10.40;56.30;;;;;;4861044;29;20105;-75
2023/04/17 06:38:07;;;;;;;1999.90;999.90;;;10.60;20.40;;;;;;4840163;29;20467;-75
2023/04/17 06:40:33;;;;;;;1999.90;999.90;;;10.50;26.20;;;;;;4860298;29;20118;-75
2023/04/17 06:42:59;;;;;;;1999.90;999.90;;;10.50;24.20;;;;;;4862347;29;20475;-76
2023/04/17 06:45:25;;;;;;;1999.90;999.90;;;10.60;22.30;;;;;;4861250;29;20637;-75
2023/04/17 06:47:51;;;;;;;1999.90;999.90;;;12.70;12.60;;;;;;4864603;29;20105;-73
2023/04/17 06:50:17;;;;;;;1999.90;999.90;;;10.70;1.00;;;;;;4864726;29;20113;-75
2023/04/17 06:52:43;;;;;;;1999.90;999.90;;;10.80;1.00;;;;;;4865049;29;20557;-74
2023/04/17 06:55:09;;;;;;;1999.90;999.90;;;10.80;1.00;;;;;;4879659;29;20113;-75
2023/04/17 06:57:35;;;;;;;1999.90;999.90;;;10.80;1.00;;;;;;4862313;29;20052;-75
2023/04/17 07:00:01;;;;;;;1999.90;999.90;;;10.90;1.00;;;;;;4862947;29;20041;-75
2023/04/17 07:02:27;;;;;;;1999.90;999.90;;;10.90;1.00;;;;;;4864529;29;20048;-76
2023/04/17 07:04:56;;;;;;;1999.90;999.90;;;11.00;1.00;;;;;;4830877;29;20053;-75
2023/04/17 07:07:21;;;;;;;1999.90;999.90;;;11.00;1.00;;;;;;4877003;29;20064;-76
2023/04/17 07:09:47;;;;;;;1999.90;999.90;;;11.00;1.00;;;;;;4864565;29;20056;-76
2023/04/17 07:12:14;;;;;;;1999.90;999.90;;;11.10;1.00;;;;;;4864144;29;20053;-76
2023/04/17 07:14:40;;;;;;;1999.90;999.90;;;11.20;1.00;;;;;;4864685;29;20060;-75
2023/04/17 07:17:06;;;;;;;1999.90;999.90;;;11.20;1.00;;;;;;4847665;29;20057;-77
2023/04/17 07:19:32;;;;;;;1999.90;999.90;;;11.40;1.00;;;;;;4894519;29;20081;-76
2023/04/17 07:21:58;;;;;;;1999.90;999.90;;;11.50;1.00;;;;;;4859500;29;20498;-76
2023/04/17 07:24:24;;;;;;;1999.90;999.90;;;11.60;1.00;;;;;;4883383;29;20049;-76
2023/04/17 07:26:50;;;;;;;1633.18;533.38;;;11.70;99.90;;;;;;4851997;29;20052;-78
2023/04/17 07:29:16;;;;;;;1999.90;999.90;;;11.80;99.90;;;;;;4848483;29;20093;-75
2023/04/17 07:31:41;;;;;;;1999.90;999.90;;;12.00;99.90;;;;;;4845110;29;20049;-76
2023/04/17 07:34:07;;;;;;;1999.90;999.90;;;12.20;99.90;;;;;;4860645;29;20053;-76
2023/04/17 07:36:33;;;;;;;1999.90;999.90;;;12.40;99.90;;;;;;4845498;29;20132;-76
2023/04/17 07:39:00;;;;;;;1768.20;770.20;;;12.60;99.90;;;;;;4864681;29;20151;-78
2023/04/17 07:41:26;;;;;;;1860.70;773.35;;;12.70;99.90;;;;;;4864796;29;20131;-76
2023/04/17 07:43:52;;;;;;;1676.93;550.95;;;12.70;99.90;;;;;;4864562;29;20800;-75
2023/04/17 07:46:17;;;;;;;1667.32;760.42;;;12.90;99.90;;;;;;4861606;29;20064;-75
2023/04/17 07:48:43;;;;;;;1999.90;999.90;;;12.90;99.90;;;;;;4863837;29;20063;-75
2023/04/17 07:51:09;;;;;;;1999.90;999.90;;;13.00;99.90;;;;;;4862188;29;20055;-74
2023/04/17 07:53:36;;;;;;;1999.90;999.90;;;13.10;99.90;;;;;;4847389;29;20045;-75
2023/04/17 07:56:01;;;;;;;1999.90;999.90;;;13.10;99.90;;;;;;4863047;29;20144;-75
2023/04/17 07:58:27;;;;;;;1999.90;999.90;;;13.10;99.90;;;;;;4859423;29;20128;-76
2023/04/17 08:00:53;;;;;;;1999.90;999.90;;;13.00;99.90;;;;;;4846165;29;20093;-75
2023/04/17 08:03:20;;;;;;;1999.90;999.90;;;13.00;99.90;;;;;;4863254;29;20508;-74
2023/04/17 08:05:47;;;;;;;1999.90;999.90;;;13.10;99.90;;;;;;4878709;29;20084;-75
2023/04/17 08:08:14;;;;;;;1999.90;999.90;;;13.20;99.90;;;;;;4843810;29;20057;-76
2023/04/17 08:10:40;;;;;;;1999.90;999.90;;;13.30;99.90;;;;;;4845951;29;20396;-74
2023/04/17 08:13:06;;;;;;;1999.90;999.90;;;13.40;99.90;;;;;;4863833;29;20085;-75
2023/04/17 08:15:32;;;;;;;1999.90;999.90;;;13.60;99.90;;;;;;4877744;29;20053;-76
2023/04/17 08:17:58;;;;;;;1999.90;999.90;;;13.80;99.90;;;;;;4862805;29;20084;-75
2023/04/17 08:20:23;;;;;;;1999.90;999.90;;;14.00;99.90;;;;;;4878165;29;20478;-75
2023/04/17 08:22:49;;;;;;;1999.90;999.90;;;14.30;99.90;;;;;;4863474;29;20132;-75
2023/04/17 08:25:15;;;;;;;1999.90;999.90;;;14.60;99.90;;;;;;4863370;29;20053;-75
2023/04/17 08:27:42;;;;;;;1999.90;999.90;;;14.90;99.90;;;;;;4861316;29;20045;-76
2023/04/17 08:30:10;;;;;;;1999.90;999.90;;;15.20;99.90;;;;;;4860411;29;20053;-74
2023/04/17 08:32:40;;;;;;;1999.90;999.90;;;15.40;99.90;;;;;;4878509;29;20113;-76
2023/04/17 08:35:10;;;;;;;1999.90;999.90;;;15.50;99.90;;;;;;4862521;29;20083;-76
2023/04/17 08:37:36;;;;;;;1999.90;999.90;;;15.40;99.90;;;;;;4878724;29;20102;-76
2023/04/17 08:40:08;;;;;;;1999.90;999.90;;;15.40;99.90;;;;;;4861734;29;20053;-75
2023/04/17 08:42:35;;;;;;;1999.90;999.90;;;15.40;99.90;;;;;;4878477;29;20045;-75
2023/04/17 08:45:04;;;;;;;1999.90;999.90;;;15.50;99.90;;;;;;4860631;29;20057;-76
2023/04/17 08:47:29;;;;;;;1999.90;999.90;;;15.50;99.90;;;;;;4862043;29;20609;-76
2023/04/17 08:49:56;;;;;;;1999.90;999.90;;;15.80;99.90;;;;;;4861827;29;20188;-75
2023/04/17 08:52:22;;;;;;;1999.90;999.90;;;14.80;99.90;;;;;;4862281;29;20045;-76
2023/04/17 08:54:48;;;;;;;1999.90;999.90;;;16.50;99.90;;;;;;4862769;29;20088;-76
2023/04/17 08:57:14;;;;;;;1999.90;999.90;;;18.10;99.90;;;;;;4861145;29;20048;-76
2023/04/17 08:59:41;;;;;;;1999.90;999.90;;;17.60;99.90;;;;;;4862241;29;20049;-76
2023/04/17 09:02:08;;;;;;;1999.90;999.90;;;18.10;99.90;;;;;;4877181;29;20064;-76
2023/04/17 09:04:42;;;;;;;1999.90;826.53;;;18.40;98.80;;;;;;4847504;29;20045;-76
2023/04/17 09:07:10;;;;;;;1999.90;999.90;;;18.70;95.20;;;;;;4836048;29;20391;-76
2023/04/17 09:09:54;;;;;;;1999.90;999.90;;;18.90;91.00;;;;;;4859656;29;20056;-76
2023/04/17 09:12:22;;;;;;;1999.90;999.90;;;18.90;70.50;;;;;;4858983;29;20057;-76
2023/04/17 09:14:49;;;;;;;1999.90;635.63;;;18.90;74.50;;;;;;4874343;29;20542;-75
2023/04/17 09:17:17;;;;;;;1999.90;999.90;;;19.10;67.60;;;;;;4866884;29;20256;-75
2023/04/17 09:20:18;;;;;;;1999.90;999.90;;;19.40;65.80;;;;;;4844714;29;20095;-76
2023/04/17 09:22:45;;;;;;;1999.90;999.90;;;19.60;65.00;;;;;;4842389;29;20056;-76
2023/04/17 09:25:18;;;;;;;1999.90;605.55;;;19.90;64.10;;;;;;4853101;29;20224;-76
2023/04/17 09:27:45;;;;;;;1999.90;999.90;;;20.30;51.70;;;;;;4869634;29;20056;-76
2023/04/17 09:30:12;;;;;;;1999.90;999.90;;;20.70;45.50;;;;;;4860145;29;20159;-76
2023/04/17 09:32:39;;;;;;;1999.90;999.90;;;20.80;44.80;;;;;;4862037;29;20053;-76
2023/04/17 09:35:08;;;;;;;1999.90;999.90;;;20.70;38.30;;;;;;4878279;29;20107;-76
2023/04/17 09:37:53;;;;;;;1999.90;999.90;;;20.90;41.70;;;;;;4875197;29;20044;-76
2023/04/17 09:40:20;;;;;;;1999.90;958.42;;;21.20;23.30;;;;;;4861187;29;20541;-76
2023/04/17 09:43:01;;;;;;;1999.90;999.90;;;21.20;24.50;;;;;;4862488;29;20140;-75
2023/04/17 09:45:34;;;;;;;1999.90;968.70;;;21.20;25.30;;;;;;4860495;29;20053;-76
2023/04/17 09:48:04;;;;;;;1999.90;964.35;;;21.00;21.30;;;;;;4875713;29;20124;-76
2023/04/17 09:50:34;;;;;;;1999.90;999.90;;;21.00;21.50;;;;;;4876789;29;20053;-76
2023/04/17 09:53:00;;;;;;;1999.90;999.90;;;21.50;20.30;;;;;;4876688;29;20053;-77
2023/04/17 09:55:28;;;;;;;1999.90;999.90;;;21.70;16.20;;;;;;4861345;29;20045;-75
2023/04/17 09:57:55;;;;;;;1999.90;999.90;;;21.20;13.60;;;;;;4860272;29;20049;-76
2023/04/17 10:00:25;;;;;;;1999.90;999.90;;;20.60;11.20;;;;;;4846120;29;20049;-76
2023/04/17 10:02:52;;;;;;;1999.90;926.42;;;20.00;13.90;;;;;;4861616;29;20048;-76
2023/04/17 10:05:23;;;;;;;1999.90;894.88;;;19.60;19.50;;;;;;4845542;29;20519;-76
2023/04/17 10:07:49;;;;;;;1999.90;999.90;;;19.40;23.40;;;;;;4877261;29;20048;-76
2023/04/17 10:10:29;;;;;;;1999.90;723.55;;;19.60;27.40;;;;;;4859912;29;20581;-77
2023/04/17 10:13:01;;;;;;;1999.90;997.05;;;19.80;23.90;;;;;;4861958;29;20052;-77
2023/04/17 10:15:28;;;;;;;1999.90;999.90;;;19.90;21.20;;;;;;4844232;29;20052;-77
2023/04/17 10:17:56;;;;;;;1999.90;478.52;;;20.40;16.10;;;;;;4861797;29;20375;-74
2023/04/17 10:20:27;;;;;;;1999.90;965.42;;;21.00;11.90;;;;;;4881002;29;20558;-75
2023/04/17 10:22:53;;;;;;;1999.90;637.05;;;21.00;15.10;;;;;;4880297;29;20055;-75
2023/04/17 10:25:24;;;;;;;1999.90;723.92;;;20.90;12.50;;;;;;4879475;29;20093;-75
2023/04/17 10:27:53;;;;;;;1999.90;999.90;;;21.10;8.50;;;;;;4868449;29;20093;-75
2023/04/17 10:30:21;;;;;;;1999.90;999.90;;;21.30;8.20;;;;;;4858897;29;20056;-76
2023/04/17 10:33:05;;;;;;;;;;;21.30;1.00;;;;;;4877249;29;20053;-76
2023/04/17 10:35:35;;;;;;;1999.90;999.90;;;21.30;1.00;;;;;;4876354;29;20254;-76
2023/04/17 10:38:05;;;;;;;1999.90;999.90;;;21.80;1.00;;;;;;4876731;29;20147;-76
2023/04/17 10:40:36;;;;;;;1999.90;999.90;;;22.40;1.00;;;;;;4844595;29;20045;-76
2023/04/17 10:43:12;;;;;;;1999.90;999.90;;;22.20;1.00;;;;;;4860598;29;20528;-76
2023/04/17 10:46:09;;;;;;;1999.90;999.90;;;21.90;1.00;;;;;;4874358;29;20327;-76
2023/04/17 10:48:51;;;;;;;1999.90;999.90;;;22.20;1.00;;;;;;4860574;29;20071;-76
2023/04/17 10:51:23;;;;;;;1999.90;999.90;;;23.10;1.00;;;;;;4860202;29;20502;-77
2023/04/17 10:53:50;;;;;;;1999.90;999.90;;;24.00;1.00;;;;;;4877304;29;20117;-77
2023/04/17 10:56:24;;;;;;;1999.90;999.90;;;24.60;1.00;;;;;;4859566;29;20172;-77
2023/04/17 10:59:01;;;;;;;1999.90;999.90;;;24.60;1.00;;;;;;4876499;29;20113;-77
2023/04/17 11:01:46;;;;;;;1999.90;999.90;;;25.10;1.00;;;;;;4875056;29;20100;-77
2023/04/17 11:04:18;;;;;;;1999.90;999.90;;;25.60;1.00;;;;;;4860908;29;20061;-77
2023/04/17 11:06:44;;;;;;;1999.90;999.90;;;26.10;1.00;;;;;;4844684;29;20047;-78
2023/04/17 11:09:10;;;;;;;1999.90;999.90;;;26.60;1.00;;;;;;4843231;29;20054;-77
2023/04/17 11:11:42;;;;;;;1999.90;999.90;;;27.40;1.00;;;;;;4851465;29;20052;-77
2023/04/17 11:14:10;;;;;;;1999.90;999.90;;;28.00;1.00;;;;;;4858206;29;20056;-77
2023/04/17 11:16:40;;;;;;;1999.90;999.90;;;28.20;1.00;;;;;;4841305;29;20049;-78
2023/04/17 11:19:11;;;;;;;1999.90;999.90;;;28.50;1.00;;;;;;4853546;29;20402;-78
2023/04/17 11:21:48;;;;;;;1999.90;999.90;;;28.80;1.00;;;;;;4876324;29;20052;-76
2023/04/17 11:24:21;;;;;;;1999.90;999.90;;;28.30;1.00;;;;;;4877124;29;20127;-77
2023/04/17 11:26:47;;;;;;;1999.90;999.90;;;28.20;1.00;;;;;;4864023;29;20144;-77
2023/04/17 11:29:18;;;;;;;1999.90;999.90;;;28.10;1.00;;;;;;4845006;29;20054;-77
2023/04/17 11:31:44;;;;;;;1999.90;999.90;;;28.00;1.00;;;;;;4845494;29;20133;-77
2023/04/17 11:34:10;;;;;;;1999.90;999.90;;;27.10;1.00;;;;;;4847412;29;20113;-77
2023/04/17 11:36:36;;;;;;;1999.90;999.90;;;27.60;1.00;;;;;;4876461;29;20057;-76
2023/04/17 11:39:02;;;;;;;1999.90;999.90;;;27.50;1.00;;;;;;4844660;29;20117;-79
2023/04/17 11:41:38;;;;;;;1999.90;999.90;;;27.70;1.00;;;;;;4829790;29;20049;-76
2023/04/17 11:44:08;;;;;;;1999.90;999.90;;;27.70;1.00;;;;;;4868219;29;20064;-77
2023/04/17 11:46:34;;;;;;;1999.90;999.90;;;27.20;1.00;;;;;;4878147;29;20057;-77
2023/04/17 11:49:03;;;;;;;1999.90;999.90;;;26.60;1.00;;;;;;4861645;29;20060;-78
2023/04/17 11:51:31;;;;;;;1999.90;999.90;;;26.00;1.00;;;;;;4847254;29;20095;-77
2023/04/17 11:53:57;;;;;;;1999.90;999.90;;;25.30;1.00;;;;;;4863430;29;20414;-76
2023/04/17 11:56:27;;;;;;;1999.90;999.90;;;24.80;1.00;;;;;;4852406;29;20104;-76
2023/04/17 11:58:54;;;;;;;1999.90;999.90;;;23.60;1.00;;;;;;4862935;29;20082;-77
2023/04/17 12:01:24;;;;;;;1999.90;999.90;;;23.70;1.00;;;;;;4877866;29;20140;-77
2023/04/17 12:03:57;;;;;;;1999.90;999.90;;;23.40;1.00;;;;;;4863152;29;20085;-77
2023/04/17 12:06:23;;;;;;;1999.90;999.90;;;22.90;1.00;;;;;;4879080;29;20053;-77
2023/04/17 12:08:54;;;;;;;1999.90;999.90;;;22.90;1.00;;;;;;4862234;29;20096;-77
2023/04/17 12:11:28;;;;;;;1999.90;999.90;;;23.60;1.00;;;;;;4858783;29;20058;-76